sensor_id;sensor_type;location;lat;lon;timestamp;P1;durP1;ratioP1;P2;durP2;ratioP2
36923;SDS011;22841;50.252;18.688;2023-06-14T00:00:53;16.15;;;9.57;;
36923;SDS011;22841;50.252;18.688;2023-06-14T00:03:22;16.45;;;9.00;;
36923;SDS011;22841;50.252;18.688;2023-06-14T00:05:50;14.38;;;9.10;;
36923;SDS011;22841;50.252;18.688;2023-06-14T00:08:16;23.45;;;9.75;;
36923;SDS011;22841;50.252;18.688;2023-06-14T00:10:44;17.33;;;9.95;;
36923;SDS011;22841;50.252;18.688;2023-06-14T00:13:10;15.05;;;9.38;;
36923;SDS011;22841;50.252;18.688;2023-06-14T00:15:37;12.90;;;9.70;;
36923;SDS011;22841;50.252;18.688;2023-06-14T00:18:03;15.75;;;9.52;;
36923;SDS011;22841;50.252;18.688;2023-06-14T00:20:30;14.85;;;9.48;;
36923;SDS011;22841;50.252;18.688;2023-06-14T00:22:58;18.85;;;10.45;;
36923;SDS011;22841;50.252;18.688;2023-06-14T00:25:25;13.52;;;8.60;;
36923;SDS011;22841;50.252;18.688;2023-06-14T00:27:51;18.52;;;9.18;;
36923;SDS011;22841;50.252;18.688;2023-06-14T00:30:18;17.25;;;9.77;;
36923;SDS011;22841;50.252;18.688;2023-06-14T00:32:45;16.27;;;9.18;;
36923;SDS011;22841;50.252;18.688;2023-06-14T00:35:11;15.30;;;9.43;;
36923;SDS011;22841;50.252;18.688;2023-06-14T00:37:38;20.05;;;11.20;;
36923;SDS011;22841;50.252;18.688;2023-06-14T00:40:05;20.42;;;10.90;;
36923;SDS011;22841;50.252;18.688;2023-06-14T00:42:32;20.05;;;12.13;;
36923;SDS011;22841;50.252;18.688;2023-06-14T00:44:59;23.02;;;12.10;;
36923;SDS011;22841;50.252;18.688;2023-06-14T00:47:26;23.92;;;13.45;;
36923;SDS011;22841;50.252;18.688;2023-06-14T00:49:52;30.95;;;13.07;;
36923;SDS011;22841;50.252;18.688;2023-06-14T00:52:20;20.05;;;12.60;;
36923;SDS011;22841;50.252;18.688;2023-06-14T00:54:49;19.85;;;12.55;;
36923;SDS011;22841;50.252;18.688;2023-06-14T00:57:15;25.27;;;12.27;;
36923;SDS011;22841;50.252;18.688;2023-06-14T00:59:43;19.13;;;11.57;;
36923;SDS011;22841;50.252;18.688;2023-06-14T01:02:10;21.25;;;11.75;;
36923;SDS011;22841;50.252;18.688;2023-06-14T01:04:38;21.63;;;12.90;;
36923;SDS011;22841;50.252;18.688;2023-06-14T01:07:08;22.75;;;12.55;;
36923;SDS011;22841;50.252;18.688;2023-06-14T01:09:48;18.90;;;11.13;;
36923;SDS011;22841;50.252;18.688;2023-06-14T01:15:03;19.10;;;12.25;;
36923;SDS011;22841;50.252;18.688;2023-06-14T01:17:30;20.05;;;11.80;;
36923;SDS011;22841;50.252;18.688;2023-06-14T01:20:02;19.83;;;11.95;;
36923;SDS011;22841;50.252;18.688;2023-06-14T01:22:29;18.83;;;11.43;;
36923;SDS011;22841;50.252;18.688;2023-06-14T01:24:55;20.85;;;12.05;;
36923;SDS011;22841;50.252;18.688;2023-06-14T01:27:22;23.77;;;13.43;;
36923;SDS011;22841;50.252;18.688;2023-06-14T01:29:52;18.63;;;11.40;;
36923;SDS011;22841;50.252;18.688;2023-06-14T01:32:25;16.65;;;10.82;;
36923;SDS011;22841;50.252;18.688;2023-06-14T01:34:53;19.85;;;11.70;;
36923;SDS011;22841;50.252;18.688;2023-06-14T01:37:20;23.58;;;12.05;;
36923;SDS011;22841;50.252;18.688;2023-06-14T01:39:48;15.93;;;11.35;;
36923;SDS011;22841;50.252;18.688;2023-06-14T01:42:15;22.60;;;12.20;;
36923;SDS011;22841;50.252;18.688;2023-06-14T01:44:42;22.48;;;12.40;;
36923;SDS011;22841;50.252;18.688;2023-06-14T01:47:09;21.35;;;13.25;;
36923;SDS011;22841;50.252;18.688;2023-06-14T01:49:37;21.35;;;12.05;;
36923;SDS011;22841;50.252;18.688;2023-06-14T01:52:04;21.13;;;11.68;;
36923;SDS011;22841;50.252;18.688;2023-06-14T01:54:31;22.73;;;11.77;;
36923;SDS011;22841;50.252;18.688;2023-06-14T01:56:57;19.58;;;12.70;;
36923;SDS011;22841;50.252;18.688;2023-06-14T01:59:23;16.63;;;10.98;;
36923;SDS011;22841;50.252;18.688;2023-06-14T02:01:49;20.25;;;11.90;;
36923;SDS011;22841;50.252;18.688;2023-06-14T02:04:15;22.33;;;11.75;;
36923;SDS011;22841;50.252;18.688;2023-06-14T02:06:42;22.77;;;12.38;;
36923;SDS011;22841;50.252;18.688;2023-06-14T02:09:08;21.73;;;13.07;;
36923;SDS011;22841;50.252;18.688;2023-06-14T02:11:34;22.23;;;12.30;;
36923;SDS011;22841;50.252;18.688;2023-06-14T02:14:00;22.33;;;13.35;;
36923;SDS011;22841;50.252;18.688;2023-06-14T02:16:27;19.15;;;13.00;;
36923;SDS011;22841;50.252;18.688;2023-06-14T02:18:54;24.83;;;13.80;;
36923;SDS011;22841;50.252;18.688;2023-06-14T02:21:21;20.55;;;13.27;;
36923;SDS011;22841;50.252;18.688;2023-06-14T02:23:47;20.90;;;12.35;;
36923;SDS011;22841;50.252;18.688;2023-06-14T02:26:13;22.98;;;14.10;;
36923;SDS011;22841;50.252;18.688;2023-06-14T02:28:39;21.50;;;12.77;;
36923;SDS011;22841;50.252;18.688;2023-06-14T02:31:05;21.00;;;12.82;;
36923;SDS011;22841;50.252;18.688;2023-06-14T02:33:32;24.00;;;13.27;;
36923;SDS011;22841;50.252;18.688;2023-06-14T02:35:58;25.75;;;12.60;;
36923;SDS011;22841;50.252;18.688;2023-06-14T02:38:24;20.27;;;11.55;;
36923;SDS011;22841;50.252;18.688;2023-06-14T02:40:50;21.58;;;12.52;;
36923;SDS011;22841;50.252;18.688;2023-06-14T02:43:17;22.40;;;12.20;;
36923;SDS011;22841;50.252;18.688;2023-06-14T02:45:43;22.10;;;12.73;;
36923;SDS011;22841;50.252;18.688;2023-06-14T02:48:09;22.38;;;12.05;;
36923;SDS011;22841;50.252;18.688;2023-06-14T02:50:36;24.30;;;11.93;;
36923;SDS011;22841;50.252;18.688;2023-06-14T02:53:02;25.75;;;13.35;;
36923;SDS011;22841;50.252;18.688;2023-06-14T02:55:28;22.70;;;13.23;;
36923;SDS011;22841;50.252;18.688;2023-06-14T02:57:54;21.52;;;11.68;;
36923;SDS011;22841;50.252;18.688;2023-06-14T03:00:20;23.60;;;11.95;;
36923;SDS011;22841;50.252;18.688;2023-06-14T03:02:46;27.73;;;14.07;;
36923;SDS011;22841;50.252;18.688;2023-06-14T03:05:12;25.42;;;13.43;;
36923;SDS011;22841;50.252;18.688;2023-06-14T03:07:39;26.17;;;14.38;;
36923;SDS011;22841;50.252;18.688;2023-06-14T03:10:09;29.70;;;13.57;;
36923;SDS011;22841;50.252;18.688;2023-06-14T03:12:35;24.70;;;13.52;;
36923;SDS011;22841;50.252;18.688;2023-06-14T03:15:02;19.05;;;13.27;;
36923;SDS011;22841;50.252;18.688;2023-06-14T03:17:28;25.77;;;12.73;;
36923;SDS011;22841;50.252;18.688;2023-06-14T03:19:57;24.83;;;13.40;;
36923;SDS011;22841;50.252;18.688;2023-06-14T03:22:23;19.60;;;12.25;;
36923;SDS011;22841;50.252;18.688;2023-06-14T03:24:51;24.08;;;13.18;;
36923;SDS011;22841;50.252;18.688;2023-06-14T03:27:19;27.08;;;13.80;;
36923;SDS011;22841;50.252;18.688;2023-06-14T03:29:45;20.65;;;12.32;;
36923;SDS011;22841;50.252;18.688;2023-06-14T03:32:11;19.60;;;13.25;;
36923;SDS011;22841;50.252;18.688;2023-06-14T03:34:37;23.75;;;12.98;;
36923;SDS011;22841;50.252;18.688;2023-06-14T03:37:04;44.83;;;13.57;;
36923;SDS011;22841;50.252;18.688;2023-06-14T03:39:30;24.35;;;13.07;;
36923;SDS011;22841;50.252;18.688;2023-06-14T03:41:56;23.05;;;13.65;;
36923;SDS011;22841;50.252;18.688;2023-06-14T03:44:22;26.08;;;13.57;;
36923;SDS011;22841;50.252;18.688;2023-06-14T03:46:48;23.42;;;13.25;;
36923;SDS011;22841;50.252;18.688;2023-06-14T03:49:15;19.80;;;12.30;;
36923;SDS011;22841;50.252;18.688;2023-06-14T03:51:42;27.13;;;14.20;;
36923;SDS011;22841;50.252;18.688;2023-06-14T03:54:08;27.25;;;13.25;;
36923;SDS011;22841;50.252;18.688;2023-06-14T03:56:35;23.90;;;13.60;;
36923;SDS011;22841;50.252;18.688;2023-06-14T03:59:03;22.90;;;13.52;;
36923;SDS011;22841;50.252;18.688;2023-06-14T04:01:29;25.30;;;13.43;;
36923;SDS011;22841;50.252;18.688;2023-06-14T04:03:56;24.60;;;14.93;;
36923;SDS011;22841;50.252;18.688;2023-06-14T04:06:23;24.13;;;13.73;;
36923;SDS011;22841;50.252;18.688;2023-06-14T04:08:51;26.60;;;14.88;;
36923;SDS011;22841;50.252;18.688;2023-06-14T04:11:17;30.27;;;15.27;;
36923;SDS011;22841;50.252;18.688;2023-06-14T04:13:43;24.13;;;14.23;;
36923;SDS011;22841;50.252;18.688;2023-06-14T04:16:10;27.70;;;14.23;;
36923;SDS011;22841;50.252;18.688;2023-06-14T04:18:36;32.75;;;15.52;;
36923;SDS011;22841;50.252;18.688;2023-06-14T04:21:02;24.73;;;14.13;;
36923;SDS011;22841;50.252;18.688;2023-06-14T04:23:28;26.35;;;13.50;;
36923;SDS011;22841;50.252;18.688;2023-06-14T04:25:55;25.83;;;14.50;;
36923;SDS011;22841;50.252;18.688;2023-06-14T04:30:53;22.48;;;13.60;;
36923;SDS011;22841;50.252;18.688;2023-06-14T04:33:19;24.85;;;14.43;;
36923;SDS011;22841;50.252;18.688;2023-06-14T04:35:45;28.17;;;14.73;;
36923;SDS011;22841;50.252;18.688;2023-06-14T04:38:19;25.77;;;15.13;;
36923;SDS011;22841;50.252;18.688;2023-06-14T04:43:18;27.58;;;14.93;;
36923;SDS011;22841;50.252;18.688;2023-06-14T04:45:50;25.92;;;13.82;;
36923;SDS011;22841;50.252;18.688;2023-06-14T04:48:17;33.72;;;16.38;;
36923;SDS011;22841;50.252;18.688;2023-06-14T04:50:46;25.48;;;14.98;;
36923;SDS011;22841;50.252;18.688;2023-06-14T04:53:12;22.98;;;13.50;;
36923;SDS011;22841;50.252;18.688;2023-06-14T04:55:38;26.63;;;13.98;;
36923;SDS011;22841;50.252;18.688;2023-06-14T04:58:04;26.25;;;14.85;;
36923;SDS011;22841;50.252;18.688;2023-06-14T05:00:31;31.20;;;15.25;;
36923;SDS011;22841;50.252;18.688;2023-06-14T05:02:57;34.45;;;16.58;;
36923;SDS011;22841;50.252;18.688;2023-06-14T05:05:23;34.75;;;15.70;;
36923;SDS011;22841;50.252;18.688;2023-06-14T05:07:50;32.17;;;15.82;;
36923;SDS011;22841;50.252;18.688;2023-06-14T05:10:16;31.08;;;15.20;;
36923;SDS011;22841;50.252;18.688;2023-06-14T05:12:42;35.50;;;15.77;;
36923;SDS011;22841;50.252;18.688;2023-06-14T05:15:09;35.08;;;15.88;;
36923;SDS011;22841;50.252;18.688;2023-06-14T05:17:35;38.90;;;16.95;;
36923;SDS011;22841;50.252;18.688;2023-06-14T05:20:02;29.63;;;14.50;;
36923;SDS011;22841;50.252;18.688;2023-06-14T05:22:28;34.65;;;16.73;;
36923;SDS011;22841;50.252;18.688;2023-06-14T05:24:55;36.53;;;17.15;;
36923;SDS011;22841;50.252;18.688;2023-06-14T05:27:21;36.92;;;16.05;;
36923;SDS011;22841;50.252;18.688;2023-06-14T05:29:47;42.42;;;15.05;;
36923;SDS011;22841;50.252;18.688;2023-06-14T05:32:13;33.92;;;15.35;;
36923;SDS011;22841;50.252;18.688;2023-06-14T05:34:40;34.17;;;17.00;;
36923;SDS011;22841;50.252;18.688;2023-06-14T05:37:06;35.55;;;16.70;;
36923;SDS011;22841;50.252;18.688;2023-06-14T05:39:32;39.15;;;16.08;;
36923;SDS011;22841;50.252;18.688;2023-06-14T05:41:58;40.75;;;17.50;;
36923;SDS011;22841;50.252;18.688;2023-06-14T05:50:13;29.85;;;15.93;;
36923;SDS011;22841;50.252;18.688;2023-06-14T05:52:39;32.40;;;15.40;;
36923;SDS011;22841;50.252;18.688;2023-06-14T05:55:05;35.97;;;17.92;;
36923;SDS011;22841;50.252;18.688;2023-06-14T05:57:31;34.85;;;16.98;;
36923;SDS011;22841;50.252;18.688;2023-06-14T05:59:58;32.85;;;16.48;;
36923;SDS011;22841;50.252;18.688;2023-06-14T06:02:24;37.80;;;16.88;;
36923;SDS011;22841;50.252;18.688;2023-06-14T06:04:50;32.42;;;15.82;;
36923;SDS011;22841;50.252;18.688;2023-06-14T06:07:16;34.83;;;15.73;;
36923;SDS011;22841;50.252;18.688;2023-06-14T06:09:42;39.47;;;16.80;;
36923;SDS011;22841;50.252;18.688;2023-06-14T06:12:08;33.28;;;14.65;;
36923;SDS011;22841;50.252;18.688;2023-06-14T06:14:35;27.95;;;15.90;;
36923;SDS011;22841;50.252;18.688;2023-06-14T06:17:01;31.35;;;15.48;;
36923;SDS011;22841;50.252;18.688;2023-06-14T06:19:28;30.67;;;14.52;;
36923;SDS011;22841;50.252;18.688;2023-06-14T06:21:54;26.08;;;13.68;;
36923;SDS011;22841;50.252;18.688;2023-06-14T06:24:20;29.25;;;15.48;;
36923;SDS011;22841;50.252;18.688;2023-06-14T06:26:46;31.83;;;15.57;;
36923;SDS011;22841;50.252;18.688;2023-06-14T06:29:12;28.80;;;14.43;;
36923;SDS011;22841;50.252;18.688;2023-06-14T06:31:38;23.10;;;13.27;;
36923;SDS011;22841;50.252;18.688;2023-06-14T06:34:04;23.45;;;14.45;;
36923;SDS011;22841;50.252;18.688;2023-06-14T06:36:31;28.15;;;14.63;;
36923;SDS011;22841;50.252;18.688;2023-06-14T06:38:57;27.70;;;14.05;;
36923;SDS011;22841;50.252;18.688;2023-06-14T06:41:23;27.60;;;15.43;;
36923;SDS011;22841;50.252;18.688;2023-06-14T06:43:49;32.67;;;14.85;;
36923;SDS011;22841;50.252;18.688;2023-06-14T06:46:15;27.42;;;15.82;;
36923;SDS011;22841;50.252;18.688;2023-06-14T06:48:43;25.27;;;15.45;;
36923;SDS011;22841;50.252;18.688;2023-06-14T06:51:09;24.05;;;15.45;;
36923;SDS011;22841;50.252;18.688;2023-06-14T06:53:35;29.27;;;17.02;;
36923;SDS011;22841;50.252;18.688;2023-06-14T06:56:01;30.48;;;15.73;;
36923;SDS011;22841;50.252;18.688;2023-06-14T06:58:28;25.30;;;15.43;;
36923;SDS011;22841;50.252;18.688;2023-06-14T07:00:54;29.88;;;16.27;;
36923;SDS011;22841;50.252;18.688;2023-06-14T07:03:20;31.90;;;16.70;;
36923;SDS011;22841;50.252;18.688;2023-06-14T07:05:46;30.27;;;16.17;;
36923;SDS011;22841;50.252;18.688;2023-06-14T07:08:12;30.05;;;16.35;;
36923;SDS011;22841;50.252;18.688;2023-06-14T07:10:38;35.38;;;16.17;;
36923;SDS011;22841;50.252;18.688;2023-06-14T07:13:05;31.17;;;16.73;;
36923;SDS011;22841;50.252;18.688;2023-06-14T07:15:31;30.42;;;15.15;;
36923;SDS011;22841;50.252;18.688;2023-06-14T07:17:57;26.33;;;14.40;;
36923;SDS011;22841;50.252;18.688;2023-06-14T07:20:25;25.40;;;15.63;;
36923;SDS011;22841;50.252;18.688;2023-06-14T07:22:51;25.80;;;16.23;;
36923;SDS011;22841;50.252;18.688;2023-06-14T07:25:17;21.98;;;14.82;;
36923;SDS011;22841;50.252;18.688;2023-06-14T07:27:45;21.02;;;14.35;;
36923;SDS011;22841;50.252;18.688;2023-06-14T07:30:11;27.73;;;14.52;;
36923;SDS011;22841;50.252;18.688;2023-06-14T07:32:38;26.88;;;14.65;;
36923;SDS011;22841;50.252;18.688;2023-06-14T07:35:04;24.95;;;14.95;;
36923;SDS011;22841;50.252;18.688;2023-06-14T07:37:30;20.95;;;15.02;;
36923;SDS011;22841;50.252;18.688;2023-06-14T07:39:56;25.92;;;14.77;;
36923;SDS011;22841;50.252;18.688;2023-06-14T07:42:22;17.35;;;11.10;;
36923;SDS011;22841;50.252;18.688;2023-06-14T07:44:49;22.38;;;13.02;;
36923;SDS011;22841;50.252;18.688;2023-06-14T07:47:16;20.90;;;12.95;;
36923;SDS011;22841;50.252;18.688;2023-06-14T07:49:42;26.77;;;15.20;;
36923;SDS011;22841;50.252;18.688;2023-06-14T07:52:08;24.02;;;15.07;;
36923;SDS011;22841;50.252;18.688;2023-06-14T07:54:34;25.42;;;15.32;;
36923;SDS011;22841;50.252;18.688;2023-06-14T07:57:01;25.98;;;15.00;;
36923;SDS011;22841;50.252;18.688;2023-06-14T07:59:28;26.08;;;14.07;;
36923;SDS011;22841;50.252;18.688;2023-06-14T08:01:54;20.40;;;14.30;;
36923;SDS011;22841;50.252;18.688;2023-06-14T08:04:20;18.98;;;13.23;;
36923;SDS011;22841;50.252;18.688;2023-06-14T08:06:46;20.80;;;13.35;;
36923;SDS011;22841;50.252;18.688;2023-06-14T08:09:13;21.38;;;12.77;;
36923;SDS011;22841;50.252;18.688;2023-06-14T08:11:39;15.55;;;10.70;;
36923;SDS011;22841;50.252;18.688;2023-06-14T08:14:05;17.73;;;11.27;;
36923;SDS011;22841;50.252;18.688;2023-06-14T08:16:31;15.95;;;10.40;;
36923;SDS011;22841;50.252;18.688;2023-06-14T08:18:57;15.55;;;10.30;;
36923;SDS011;22841;50.252;18.688;2023-06-14T08:21:23;12.00;;;9.23;;
36923;SDS011;22841;50.252;18.688;2023-06-14T08:23:57;15.85;;;9.45;;
36923;SDS011;22841;50.252;18.688;2023-06-14T08:26:23;15.57;;;8.15;;
36923;SDS011;22841;50.252;18.688;2023-06-14T08:28:49;12.10;;;8.18;;
36923;SDS011;22841;50.252;18.688;2023-06-14T08:31:15;12.18;;;7.90;;
36923;SDS011;22841;50.252;18.688;2023-06-14T08:33:42;11.80;;;8.45;;
36923;SDS011;22841;50.252;18.688;2023-06-14T08:36:08;11.52;;;7.97;;
36923;SDS011;22841;50.252;18.688;2023-06-14T08:38:36;9.80;;;7.80;;
36923;SDS011;22841;50.252;18.688;2023-06-14T08:41:03;11.23;;;7.20;;
36923;SDS011;22841;50.252;18.688;2023-06-14T08:43:32;19.92;;;6.68;;
36923;SDS011;22841;50.252;18.688;2023-06-14T08:46:00;10.23;;;6.30;;
36923;SDS011;22841;50.252;18.688;2023-06-14T08:48:29;19.30;;;9.82;;
36923;SDS011;22841;50.252;18.688;2023-06-14T08:51:00;9.85;;;7.47;;
36923;SDS011;22841;50.252;18.688;2023-06-14T08:53:32;14.20;;;9.50;;
36923;SDS011;22841;50.252;18.688;2023-06-14T08:55:59;10.50;;;7.22;;
36923;SDS011;22841;50.252;18.688;2023-06-14T08:58:27;7.88;;;6.40;;
36923;SDS011;22841;50.252;18.688;2023-06-14T09:00:57;9.05;;;6.15;;
36923;SDS011;22841;50.252;18.688;2023-06-14T09:03:24;12.27;;;6.15;;
36923;SDS011;22841;50.252;18.688;2023-06-14T09:05:56;12.75;;;8.20;;
36923;SDS011;22841;50.252;18.688;2023-06-14T09:08:25;9.60;;;6.78;;
36923;SDS011;22841;50.252;18.688;2023-06-14T09:10:51;8.00;;;5.35;;
36923;SDS011;22841;50.252;18.688;2023-06-14T09:13:18;8.65;;;6.07;;
36923;SDS011;22841;50.252;18.688;2023-06-14T09:15:44;12.27;;;6.70;;
36923;SDS011;22841;50.252;18.688;2023-06-14T09:18:10;8.43;;;6.30;;
36923;SDS011;22841;50.252;18.688;2023-06-14T09:20:36;6.20;;;5.55;;
36923;SDS011;22841;50.252;18.688;2023-06-14T09:23:03;11.02;;;4.97;;
36923;SDS011;22841;50.252;18.688;2023-06-14T09:25:30;6.53;;;4.95;;
36923;SDS011;22841;50.252;18.688;2023-06-14T09:27:56;7.38;;;6.50;;
36923;SDS011;22841;50.252;18.688;2023-06-14T09:30:23;13.70;;;10.18;;
36923;SDS011;22841;50.252;18.688;2023-06-14T09:32:49;13.45;;;10.50;;
36923;SDS011;22841;50.252;18.688;2023-06-14T09:35:17;15.05;;;11.02;;
36923;SDS011;22841;50.252;18.688;2023-06-14T09:37:43;6.13;;;5.53;;
36923;SDS011;22841;50.252;18.688;2023-06-14T09:40:10;6.18;;;5.53;;
36923;SDS011;22841;50.252;18.688;2023-06-14T09:42:37;9.57;;;6.28;;
36923;SDS011;22841;50.252;18.688;2023-06-14T09:45:03;9.07;;;6.72;;
36923;SDS011;22841;50.252;18.688;2023-06-14T09:47:30;7.03;;;6.32;;
36923;SDS011;22841;50.252;18.688;2023-06-14T09:49:56;9.52;;;6.38;;
36923;SDS011;22841;50.252;18.688;2023-06-14T09:52:22;10.38;;;7.90;;
36923;SDS011;22841;50.252;18.688;2023-06-14T09:54:49;8.20;;;6.40;;
36923;SDS011;22841;50.252;18.688;2023-06-14T09:57:16;10.10;;;7.93;;
36923;SDS011;22841;50.252;18.688;2023-06-14T09:59:46;9.85;;;6.82;;
36923;SDS011;22841;50.252;18.688;2023-06-14T10:10:09;9.77;;;4.97;;
36923;SDS011;22841;50.252;18.688;2023-06-14T10:12:36;5.38;;;4.47;;
36923;SDS011;22841;50.252;18.688;2023-06-14T10:15:02;9.00;;;5.10;;
36923;SDS011;22841;50.252;18.688;2023-06-14T10:20:53;7.57;;;4.72;;
36923;SDS011;22841;50.252;18.688;2023-06-14T10:23:25;7.70;;;5.72;;
36923;SDS011;22841;50.252;18.688;2023-06-14T10:25:58;6.75;;;5.50;;
36923;SDS011;22841;50.252;18.688;2023-06-14T10:28:25;6.45;;;5.53;;
36923;SDS011;22841;50.252;18.688;2023-06-14T10:31:02;7.13;;;4.82;;
36923;SDS011;22841;50.252;18.688;2023-06-14T10:33:36;8.98;;;6.75;;
36923;SDS011;22841;50.252;18.688;2023-06-14T10:36:26;10.80;;;6.25;;
36923;SDS011;22841;50.252;18.688;2023-06-14T10:41:53;8.70;;;6.47;;
36923;SDS011;22841;50.252;18.688;2023-06-14T10:46:46;11.23;;;7.13;;
36923;SDS011;22841;50.252;18.688;2023-06-14T10:49:17;11.88;;;7.22;;
36923;SDS011;22841;50.252;18.688;2023-06-14T10:51:45;7.82;;;6.53;;
36923;SDS011;22841;50.252;18.688;2023-06-14T10:54:17;11.52;;;7.00;;
36923;SDS011;22841;50.252;18.688;2023-06-14T10:56:46;7.72;;;6.93;;
36923;SDS011;22841;50.252;18.688;2023-06-14T10:59:17;10.57;;;6.70;;
36923;SDS011;22841;50.252;18.688;2023-06-14T11:04:51;13.50;;;7.88;;
36923;SDS011;22841;50.252;18.688;2023-06-14T11:13:03;23.67;;;13.00;;
36923;SDS011;22841;50.252;18.688;2023-06-14T11:15:30;15.10;;;11.60;;
36923;SDS011;22841;50.252;18.688;2023-06-14T11:17:57;14.25;;;10.35;;
36923;SDS011;22841;50.252;18.688;2023-06-14T11:20:26;12.15;;;9.43;;
36923;SDS011;22841;50.252;18.688;2023-06-14T11:22:53;12.30;;;8.48;;
36923;SDS011;22841;50.252;18.688;2023-06-14T11:25:20;8.50;;;7.60;;
36923;SDS011;22841;50.252;18.688;2023-06-14T11:27:46;9.98;;;8.40;;
36923;SDS011;22841;50.252;18.688;2023-06-14T11:30:14;14.70;;;7.85;;
36923;SDS011;22841;50.252;18.688;2023-06-14T11:32:40;10.35;;;8.07;;
36923;SDS011;22841;50.252;18.688;2023-06-14T11:35:08;12.23;;;8.80;;
36923;SDS011;22841;50.252;18.688;2023-06-14T11:37:35;16.45;;;10.98;;
36923;SDS011;22841;50.252;18.688;2023-06-14T11:40:08;22.50;;;14.43;;
36923;SDS011;22841;50.252;18.688;2023-06-14T11:42:35;19.63;;;14.18;;
36923;SDS011;22841;50.252;18.688;2023-06-14T11:45:03;21.52;;;15.98;;
36923;SDS011;22841;50.252;18.688;2023-06-14T11:47:37;19.75;;;12.82;;
36923;SDS011;22841;50.252;18.688;2023-06-14T11:50:08;20.63;;;13.02;;
36923;SDS011;22841;50.252;18.688;2023-06-14T11:52:36;17.55;;;11.70;;
36923;SDS011;22841;50.252;18.688;2023-06-14T11:55:03;12.25;;;8.80;;
36923;SDS011;22841;50.252;18.688;2023-06-14T11:57:36;10.38;;;8.45;;
36923;SDS011;22841;50.252;18.688;2023-06-14T12:00:04;11.48;;;8.25;;
36923;SDS011;22841;50.252;18.688;2023-06-14T12:02:37;10.25;;;8.15;;
36923;SDS011;22841;50.252;18.688;2023-06-14T12:05:06;13.45;;;7.82;;
36923;SDS011;22841;50.252;18.688;2023-06-14T12:07:38;10.60;;;7.57;;
36923;SDS011;22841;50.252;18.688;2023-06-14T12:10:06;14.00;;;7.45;;
36923;SDS011;22841;50.252;18.688;2023-06-14T12:12:37;12.18;;;8.25;;
36923;SDS011;22841;50.252;18.688;2023-06-14T12:15:05;12.68;;;9.10;;
36923;SDS011;22841;50.252;18.688;2023-06-14T12:17:33;10.57;;;8.23;;
36923;SDS011;22841;50.252;18.688;2023-06-14T12:20:07;9.52;;;7.75;;
36923;SDS011;22841;50.252;18.688;2023-06-14T12:22:53;10.70;;;7.05;;
36923;SDS011;22841;50.252;18.688;2023-06-14T12:27:57;9.43;;;7.30;;
36923;SDS011;22841;50.252;18.688;2023-06-14T12:30:24;6.97;;;5.55;;
36923;SDS011;22841;50.252;18.688;2023-06-14T12:32:50;6.28;;;5.30;;
36923;SDS011;22841;50.252;18.688;2023-06-14T12:35:17;7.38;;;4.80;;
36923;SDS011;22841;50.252;18.688;2023-06-14T12:37:46;4.35;;;3.95;;
36923;SDS011;22841;50.252;18.688;2023-06-14T12:40:13;7.22;;;4.40;;
36923;SDS011;22841;50.252;18.688;2023-06-14T12:42:40;4.20;;;3.80;;
36923;SDS011;22841;50.252;18.688;2023-06-14T12:45:06;70.72;;;9.55;;
36923;SDS011;22841;50.252;18.688;2023-06-14T12:47:33;8.82;;;5.65;;
36923;SDS011;22841;50.252;18.688;2023-06-14T12:49:59;8.55;;;6.78;;
36923;SDS011;22841;50.252;18.688;2023-06-14T12:52:26;10.27;;;6.93;;
36923;SDS011;22841;50.252;18.688;2023-06-14T12:54:52;11.23;;;7.68;;
36923;SDS011;22841;50.252;18.688;2023-06-14T12:57:18;14.55;;;7.28;;
36923;SDS011;22841;50.252;18.688;2023-06-14T12:59:44;13.18;;;8.00;;
36923;SDS011;22841;50.252;18.688;2023-06-14T13:02:15;11.02;;;6.53;;
36923;SDS011;22841;50.252;18.688;2023-06-14T13:04:43;10.63;;;5.90;;
36923;SDS011;22841;50.252;18.688;2023-06-14T13:07:09;7.00;;;5.05;;
36923;SDS011;22841;50.252;18.688;2023-06-14T13:09:40;6.28;;;4.43;;
36923;SDS011;22841;50.252;18.688;2023-06-14T13:12:07;7.85;;;4.78;;
36923;SDS011;22841;50.252;18.688;2023-06-14T13:14:36;12.43;;;4.50;;
36923;SDS011;22841;50.252;18.688;2023-06-14T13:17:03;10.35;;;4.93;;
36923;SDS011;22841;50.252;18.688;2023-06-14T13:19:29;7.10;;;4.13;;
36923;SDS011;22841;50.252;18.688;2023-06-14T13:21:55;8.35;;;5.47;;
36923;SDS011;22841;50.252;18.688;2023-06-14T13:24:21;13.02;;;7.55;;
36923;SDS011;22841;50.252;18.688;2023-06-14T13:26:47;9.60;;;6.40;;
36923;SDS011;22841;50.252;18.688;2023-06-14T13:29:14;13.88;;;7.60;;
36923;SDS011;22841;50.252;18.688;2023-06-14T13:31:40;18.48;;;7.80;;
36923;SDS011;22841;50.252;18.688;2023-06-14T13:34:06;8.57;;;5.40;;
36923;SDS011;22841;50.252;18.688;2023-06-14T13:36:32;9.32;;;5.63;;
36923;SDS011;22841;50.252;18.688;2023-06-14T13:38:58;9.75;;;5.15;;
36923;SDS011;22841;50.252;18.688;2023-06-14T13:41:25;12.75;;;5.82;;
36923;SDS011;22841;50.252;18.688;2023-06-14T13:43:59;7.57;;;5.50;;
36923;SDS011;22841;50.252;18.688;2023-06-14T13:46:26;14.15;;;6.22;;
36923;SDS011;22841;50.252;18.688;2023-06-14T13:48:52;10.40;;;5.43;;
36923;SDS011;22841;50.252;18.688;2023-06-14T13:51:18;10.13;;;4.63;;
36923;SDS011;22841;50.252;18.688;2023-06-14T13:53:46;8.65;;;5.45;;
36923;SDS011;22841;50.252;18.688;2023-06-14T13:56:14;7.88;;;5.45;;
36923;SDS011;22841;50.252;18.688;2023-06-14T13:58:41;8.05;;;4.90;;
36923;SDS011;22841;50.252;18.688;2023-06-14T14:01:07;8.00;;;5.43;;
36923;SDS011;22841;50.252;18.688;2023-06-14T14:03:34;11.65;;;6.28;;
36923;SDS011;22841;50.252;18.688;2023-06-14T14:06:01;12.32;;;5.65;;
36923;SDS011;22841;50.252;18.688;2023-06-14T14:08:27;9.00;;;6.15;;
36923;SDS011;22841;50.252;18.688;2023-06-14T14:10:54;12.85;;;7.07;;
36923;SDS011;22841;50.252;18.688;2023-06-14T14:13:21;14.20;;;7.30;;
36923;SDS011;22841;50.252;18.688;2023-06-14T14:15:48;10.73;;;6.35;;
36923;SDS011;22841;50.252;18.688;2023-06-14T14:18:17;13.63;;;5.25;;
36923;SDS011;22841;50.252;18.688;2023-06-14T14:20:46;11.23;;;5.53;;
36923;SDS011;22841;50.252;18.688;2023-06-14T14:23:12;6.15;;;5.05;;
36923;SDS011;22841;50.252;18.688;2023-06-14T14:25:38;6.28;;;4.72;;
36923;SDS011;22841;50.252;18.688;2023-06-14T14:28:04;5.97;;;4.72;;
36923;SDS011;22841;50.252;18.688;2023-06-14T14:30:31;7.88;;;5.35;;
36923;SDS011;22841;50.252;18.688;2023-06-14T14:32:57;9.00;;;5.45;;
36923;SDS011;22841;50.252;18.688;2023-06-14T14:35:23;6.63;;;5.43;;
36923;SDS011;22841;50.252;18.688;2023-06-14T14:37:51;8.15;;;5.68;;
36923;SDS011;22841;50.252;18.688;2023-06-14T14:40:17;10.70;;;5.88;;
36923;SDS011;22841;50.252;18.688;2023-06-14T14:42:43;8.57;;;5.82;;
36923;SDS011;22841;50.252;18.688;2023-06-14T14:45:10;6.80;;;5.70;;
36923;SDS011;22841;50.252;18.688;2023-06-14T14:47:36;10.00;;;5.30;;
36923;SDS011;22841;50.252;18.688;2023-06-14T14:50:02;11.55;;;6.38;;
36923;SDS011;22841;50.252;18.688;2023-06-14T14:52:28;7.07;;;5.78;;
36923;SDS011;22841;50.252;18.688;2023-06-14T14:54:54;9.38;;;5.97;;
36923;SDS011;22841;50.252;18.688;2023-06-14T14:57:21;7.18;;;6.05;;